Time;durP1;ratioP1;P1;durP2;ratioP2;P2;SDS_P1;SDS_P2;PMS_P1;PMS_P2;Temp;Humidity;BMP_temperature;BMP_pressure;BME280_temperature;BME280_humidity;BME280_pressure;Samples;Min_cycle;Max_cycle;Signal;HPM_P1;HPM_P2
2022/11/12 00:00:24;;;;;;;13.93;8.93;;;8.30;99.90;;;;;;5052899;28;20101;-57
2022/11/12 00:02:50;;;;;;;11.07;8.40;;;8.30;99.90;;;;;;5056018;28;20443;-56
2022/11/12 00:05:16;;;;;;;12.37;7.87;;;8.20;99.90;;;;;;5052514;28;20094;-58
2022/11/12 00:07:41;;;;;;;15.93;8.23;;;8.20;99.90;;;;;;5053297;28;20518;-57
2022/11/12 00:10:07;;;;;;;10.60;8.17;;;8.20;99.90;;;;;;5068641;28;20528;-57
2022/11/12 00:12:33;;;;;;;15.77;7.38;;;8.20;99.90;;;;;;5067264;28;20044;-57
2022/11/12 00:14:58;;;;;;;12.70;7.03;;;8.10;99.90;;;;;;5031750;28;20060;-57
2022/11/12 00:17:24;;;;;;;10.70;8.17;;;8.10;99.90;;;;;;5049237;28;20057;-58
2022/11/12 00:19:49;;;;;;;19.03;8.17;;;8.10;99.90;;;;;;5051516;28;20048;-58
2022/11/12 00:22:15;;;;;;;11.33;8.27;;;8.10;99.90;;;;;;5050551;28;20460;-57
2022/11/12 00:24:41;;;;;;;19.47;9.83;;;8.10;99.90;;;;;;5049663;28;20106;-58
2022/11/12 00:27:06;;;;;;;10.03;6.87;;;8.00;99.90;;;;;;5050429;28;20357;-57
2022/11/12 00:29:32;;;;;;;10.57;8.43;;;8.00;99.90;;;;;;5066734;28;20058;-57
2022/11/12 00:31:57;;;;;;;12.93;8.10;;;8.00;99.90;;;;;;5082798;28;20048;-58
2022/11/12 00:34:23;;;;;;;12.93;7.93;;;8.00;99.90;;;;;;5063996;28;20033;-56
2022/11/12 00:36:48;;;;;;;13.47;8.40;;;7.90;99.90;;;;;;5072446;28;20028;-57
2022/11/12 00:39:14;;;;;;;11.50;7.50;;;7.90;99.90;;;;;;5059930;28;20056;-58
2022/11/12 00:41:39;;;;;;;13.97;8.23;;;7.90;99.90;;;;;;5061280;28;20102;-57
2022/11/12 00:44:05;;;;;;;16.57;7.93;;;7.90;99.90;;;;;;5072263;28;20043;-56
2022/11/12 00:46:30;;;;;;;10.97;8.17;;;7.90;99.90;;;;;;5066570;28;20090;-57
2022/11/12 00:48:56;;;;;;;12.93;8.07;;;7.90;99.90;;;;;;5076450;28;20048;-58
2022/11/12 00:51:22;;;;;;;11.10;7.47;;;7.80;99.90;;;;;;5059184;28;20029;-55
2022/11/12 00:53:48;;;;;;;10.77;7.70;;;7.80;99.90;;;;;;5053233;28;20032;-56
2022/11/12 00:56:14;;;;;;;;;;;7.80;99.90;;;;;;5053191;28;20283;-57
2022/11/12 00:58:40;;;;;;;11.88;6.35;;;7.80;99.90;;;;;;5050245;28;19924;-57
2022/11/12 01:01:08;;;;;;;12.93;8.02;;;7.80;99.90;;;;;;5052067;28;20553;-58
2022/11/12 01:03:34;;;;;;;12.07;7.95;;;7.80;99.90;;;;;;5049489;28;20045;-57
2022/11/12 01:06:08;;;;;;;15.43;7.85;;;7.80;99.90;;;;;;5057683;28;20041;-57
2022/11/12 01:08:34;;;;;;;11.82;6.63;;;7.80;99.90;;;;;;5074696;28;20097;-57
2022/11/12 01:11:17;;;;;;;14.40;7.97;;;7.70;99.90;;;;;;5079078;28;20036;-57
2022/11/12 01:13:44;;;;;;;14.35;6.80;;;7.70;99.90;;;;;;5050617;28;20037;-58
2022/11/12 01:16:14;;;;;;;16.30;7.43;;;7.70;99.90;;;;;;5069962;28;20052;-57
2022/11/12 01:18:40;;;;;;;11.20;6.60;;;7.70;99.90;;;;;;5049893;28;20041;-56
2022/11/12 01:21:06;;;;;;;10.23;7.57;;;7.70;99.90;;;;;;5049838;28;20136;-57
2022/11/12 01:23:33;;;;;;;11.60;7.30;;;7.70;99.90;;;;;;5032550;28;20329;-58
2022/11/12 01:26:04;;;;;;;11.63;7.13;;;7.70;99.90;;;;;;5050138;28;20045;-56
2022/11/12 01:28:29;;;;;;;14.18;6.97;;;7.70;99.90;;;;;;5060162;28;20421;-58
2022/11/12 01:30:55;;;;;;;14.73;8.07;;;7.70;99.90;;;;;;5048271;28;20052;-57
2022/11/12 01:33:20;;;;;;;13.37;7.17;;;7.60;99.90;;;;;;5058057;28;20032;-56
2022/11/12 01:35:46;;;;;;;8.30;6.27;;;7.60;99.90;;;;;;5067370;28;20036;-58
2022/11/12 01:38:12;;;;;;;11.23;7.17;;;7.60;99.90;;;;;;5060155;28;20044;-58
2022/11/12 01:40:37;;;;;;;12.57;7.20;;;7.60;99.90;;;;;;5069003;28;20357;-57
2022/11/12 01:43:03;;;;;;;14.50;7.50;;;7.60;99.90;;;;;;5060943;28;20375;-57
2022/11/12 01:45:28;;;;;;;12.03;7.03;;;7.60;99.90;;;;;;5049432;28;20048;-57
2022/11/12 01:47:54;;;;;;;17.13;8.43;;;7.60;99.90;;;;;;5049676;28;20479;-57
2022/11/12 01:50:32;;;;;;;14.95;8.10;;;7.60;99.90;;;;;;5084971;28;20073;-56
2022/11/12 01:53:02;;;;;;;13.75;7.95;;;7.60;99.90;;;;;;5065916;28;20053;-56
2022/11/12 01:55:33;;;;;;;13.32;6.93;;;7.60;99.90;;;;;;5068345;28;20040;-56
2022/11/12 01:58:10;;;;;;;16.75;7.50;;;7.60;99.90;;;;;;5068522;28;20043;-57
2022/11/12 02:00:36;;;;;;;9.07;7.05;;;7.60;99.90;;;;;;5069270;28;20048;-55
2022/11/12 02:03:06;;;;;;;19.58;7.00;;;7.60;99.90;;;;;;5069885;28;20036;-57
2022/11/12 02:05:33;;;;;;;13.18;8.02;;;7.50;99.90;;;;;;5070846;28;20044;-56
2022/11/12 02:08:00;;;;;;;12.88;6.53;;;7.50;99.90;;;;;;5071375;28;20121;-56
2022/11/12 02:10:26;;;;;;;11.98;6.97;;;7.40;99.90;;;;;;5055749;28;20043;-55
2022/11/12 02:15:39;;;;;;;10.32;6.68;;;7.40;99.90;;;;;;5053876;28;20406;-56
2022/11/12 02:18:04;;;;;;;10.90;6.65;;;7.40;99.90;;;;;;5052180;28;20071;-56
2022/11/12 02:20:35;;;;;;;13.50;6.63;;;7.40;99.90;;;;;;5052916;28;20517;-57
2022/11/12 02:23:00;;;;;;;10.73;6.28;;;7.30;99.90;;;;;;5056453;28;20671;-57
2022/11/12 02:25:27;;;;;;;16.93;6.53;;;7.20;99.90;;;;;;5070611;28;20048;-54
2022/11/12 02:27:54;;;;;;;11.60;6.32;;;7.10;99.90;;;;;;5071689;28;20048;-54
2022/11/12 02:30:37;;;;;;;11.23;7.05;;;7.10;99.90;;;;;;5072433;28;20094;-56
2022/11/12 02:33:03;;;;;;;14.02;6.63;;;7.10;99.90;;;;;;5070008;28;20036;-56
2022/11/12 02:35:29;;;;;;;8.67;6.07;;;7.20;99.90;;;;;;5071826;28;20036;-54
2022/11/12 02:37:55;;;;;;;9.95;6.20;;;7.10;99.90;;;;;;5053540;28;20080;-57
2022/11/12 02:40:21;;;;;;;11.43;5.77;;;7.00;99.90;;;;;;5054486;28;20103;-57
2022/11/12 02:42:46;;;;;;;6.95;5.80;;;6.90;99.90;;;;;;5067882;28;20037;-55
2022/11/12 02:45:12;;;;;;;6.83;6.10;;;6.90;99.90;;;;;;5051837;28;20045;-55
2022/11/12 02:47:37;;;;;;;9.48;5.53;;;6.80;99.90;;;;;;5053188;28;20037;-57
2022/11/12 02:50:04;;;;;;;10.30;4.70;;;6.80;99.90;;;;;;5070738;28;20158;-56
2022/11/12 02:52:29;;;;;;;8.73;5.50;;;6.70;99.90;;;;;;5069866;28;20041;-56
2022/11/12 02:54:55;;;;;;;42.67;6.00;;;6.50;99.90;;;;;;5056709;28;20043;-56
2022/11/12 02:57:20;;;;;;;5.33;4.73;;;6.40;99.90;;;;;;5068471;28;20048;-55
2022/11/12 02:59:46;;;;;;;9.17;4.93;;;6.30;99.90;;;;;;5065887;28;20036;-57
2022/11/12 03:02:11;;;;;;;11.33;5.60;;;6.20;99.90;;;;;;5075983;28;20163;-57
2022/11/12 03:04:37;;;;;;;11.13;6.37;;;6.20;99.90;;;;;;5050961;28;20124;-56
2022/11/12 03:07:02;;;;;;;10.23;6.10;;;6.20;99.90;;;;;;5067018;28;20120;-55
2022/11/12 03:09:28;;;;;;;13.87;6.37;;;6.20;99.90;;;;;;5055738;28;20086;-56
2022/11/12 03:11:53;;;;;;;11.00;6.03;;;6.30;99.90;;;;;;5071656;28;20115;-57
2022/11/12 03:14:19;;;;;;;10.93;6.60;;;6.30;99.90;;;;;;5069913;28;20119;-57
2022/11/12 03:16:45;;;;;;;10.77;6.53;;;6.30;99.90;;;;;;5069766;28;20045;-57
2022/11/12 03:19:10;;;;;;;14.40;6.17;;;6.40;99.90;;;;;;5057952;28;20036;-56
2022/11/12 03:21:36;;;;;;;11.07;5.83;;;6.40;99.90;;;;;;5051536;28;20060;-57
2022/11/12 03:24:01;;;;;;;11.93;6.57;;;6.40;99.90;;;;;;5050773;28;20098;-56
2022/11/12 03:26:27;;;;;;;14.53;7.97;;;6.40;99.90;;;;;;5067240;28;20093;-56
2022/11/12 03:28:52;;;;;;;14.60;8.50;;;6.40;99.90;;;;;;5068733;28;20559;-57
2022/11/12 03:31:18;;;;;;;8.53;6.30;;;6.50;99.90;;;;;;5070951;28;20044;-55
2022/11/12 03:33:43;;;;;;;10.30;6.30;;;6.40;99.90;;;;;;5068504;28;20244;-57
2022/11/12 03:36:09;;;;;;;10.70;6.47;;;6.50;99.90;;;;;;5070952;28;20045;-57
2022/11/12 03:38:34;;;;;;;9.20;6.40;;;6.50;99.90;;;;;;5070516;28;20040;-57
2022/11/12 03:41:00;;;;;;;12.13;6.57;;;6.50;99.90;;;;;;5058627;28;20429;-56
2022/11/12 03:43:26;;;;;;;6.73;5.00;;;6.50;99.90;;;;;;5058854;28;20074;-56
2022/11/12 03:45:51;;;;;;;7.23;5.47;;;6.50;99.90;;;;;;5071165;28;20036;-57
2022/11/12 03:48:17;;;;;;;6.97;5.43;;;6.40;99.90;;;;;;5070887;28;20032;-57
2022/11/12 03:50:42;;;;;;;10.30;7.20;;;6.30;99.90;;;;;;5068073;28;20115;-57
2022/11/12 03:53:08;;;;;;;11.77;7.73;;;6.30;99.90;;;;;;5070117;28;20517;-57
2022/11/12 03:55:33;;;;;;;14.10;8.10;;;6.30;99.90;;;;;;5070622;28;20033;-57
2022/11/12 03:57:59;;;;;;;10.53;7.33;;;6.30;99.90;;;;;;5055958;28;20124;-57
2022/11/12 04:00:27;;;;;;;15.17;8.23;;;6.30;99.90;;;;;;5066927;28;20039;-57
2022/11/12 04:02:52;;;;;;;9.85;7.75;;;6.30;99.90;;;;;;5070211;28;20072;-58
2022/11/12 04:08:34;;;;;;;16.83;8.00;;;6.40;99.90;;;;;;5065562;28;20045;-57
2022/11/12 04:11:27;;;;;;;19.38;8.65;;;6.50;99.90;;;;;;5051880;28;20052;-57
2022/11/12 04:13:53;;;;;;;12.00;8.30;;;6.40;99.90;;;;;;5046342;28;20049;-56
2022/11/12 04:22:08;;;;;;;7.43;6.22;;;6.40;99.90;;;;;;5068631;28;20036;-57
2022/11/12 04:27:29;;;;;;;9.38;6.13;;;6.20;99.90;;;;;;5050851;28;20127;-54
2022/11/12 04:32:45;;;;;;;9.20;6.85;;;6.10;99.90;;;;;;5053439;28;20486;-56
2022/11/12 04:35:10;;;;;;;11.13;6.47;;;6.00;99.90;;;;;;5069607;28;20066;-55
2022/11/12 04:37:46;;;;;;;10.03;6.10;;;6.00;99.90;;;;;;5069594;28;20044;-56
2022/11/12 04:45:43;;;;;;;10.93;3.83;;;5.90;99.90;;;;;;5050023;28;20310;-55
2022/11/12 04:48:09;;;;;;;5.25;4.75;;;5.80;99.90;;;;;;5049514;28;20033;-56
2022/11/12 04:50:35;;;;;;;8.63;5.90;;;5.80;99.90;;;;;;5050102;28;20437;-55
2022/11/12 04:53:01;;;;;;;7.82;5.97;;;5.70;99.90;;;;;;5049686;28;20029;-53
2022/11/12 04:55:26;;;;;;;10.53;6.53;;;5.70;99.90;;;;;;5064442;28;20041;-55
2022/11/12 04:57:52;;;;;;;8.83;6.37;;;5.80;99.90;;;;;;5051252;28;20094;-54
2022/11/12 05:00:17;;;;;;;160.03;13.60;;;5.80;99.90;;;;;;5060772;28;20155;-56
2022/11/12 05:02:43;;;;;;;17.52;5.03;;;5.70;99.90;;;;;;5049377;28;20075;-56
2022/11/12 05:05:09;;;;;;;6.90;4.43;;;5.60;99.90;;;;;;5050682;28;20044;-57
2022/11/12 05:07:34;;;;;;;9.13;6.17;;;5.50;99.90;;;;;;5061108;28;20427;-57
2022/11/12 05:10:00;;;;;;;9.30;7.40;;;5.50;99.90;;;;;;5085361;28;20489;-57
2022/11/12 05:12:25;;;;;;;14.17;8.50;;;5.50;99.90;;;;;;5083836;28;20405;-56
2022/11/12 05:14:51;;;;;;;10.67;7.43;;;5.50;99.90;;;;;;5058422;28;20036;-57
2022/11/12 05:17:16;;;;;;;12.17;7.73;;;5.60;99.90;;;;;;5066646;28;20301;-57
2022/11/12 05:19:42;;;;;;;13.97;8.57;;;5.60;99.90;;;;;;5050337;28;20041;-57
2022/11/12 05:22:09;;;;;;;9.90;7.33;;;5.60;99.90;;;;;;5059120;28;20111;-57
2022/11/12 05:24:40;;;;;;;8.77;6.90;;;5.70;99.90;;;;;;5050938;28;20138;-56
2022/11/12 05:27:12;;;;;;;16.60;7.68;;;5.70;99.90;;;;;;5051125;28;20486;-56
2022/11/12 05:29:38;;;;;;;8.85;4.30;;;5.70;99.90;;;;;;5049906;28;20048;-57
2022/11/12 05:32:09;;;;;;;4.47;3.85;;;5.70;99.90;;;;;;5049800;28;20036;-56
2022/11/12 05:34:35;;;;;;;3.80;3.22;;;5.50;99.90;;;;;;5062508;28;20048;-55
2022/11/12 05:37:03;;;;;;;4.18;3.88;;;5.30;99.90;;;;;;5052695;28;20041;-55
2022/11/12 05:39:28;;;;;;;14.98;4.63;;;5.20;99.90;;;;;;5052129;28;20493;-57
2022/11/12 05:41:54;;;;;;;4.97;4.47;;;5.10;99.90;;;;;;5053275;28;20037;-57
2022/11/12 05:44:20;;;;;;;32.20;7.03;;;5.10;99.90;;;;;;5064531;28;20132;-57
2022/11/12 05:46:45;;;;;;;5.72;5.07;;;5.10;99.90;;;;;;5070261;28;20119;-57
2022/11/12 05:49:11;;;;;;;11.57;4.73;;;5.00;99.90;;;;;;5072961;28;20490;-57
2022/11/12 05:51:37;;;;;;;5.40;4.88;;;5.00;99.90;;;;;;5073314;28;20504;-57
2022/11/12 05:54:03;;;;;;;8.27;5.27;;;5.00;99.90;;;;;;5072222;28;20036;-56
2022/11/12 05:56:29;;;;;;;4.95;4.40;;;4.90;99.90;;;;;;5072866;28;20652;-57
2022/11/12 05:58:54;;;;;;;6.17;4.83;;;4.90;99.90;;;;;;5069519;28;20066;-56
2022/11/12 06:01:20;;;;;;;4.97;3.92;;;4.90;99.90;;;;;;5053184;28;20049;-57
2022/11/12 06:03:46;;;;;;;19.50;4.87;;;4.90;99.90;;;;;;5052628;28;20581;-56
2022/11/12 06:06:11;;;;;;;39.80;5.05;;;4.90;99.90;;;;;;5052946;28;20098;-55
2022/11/12 06:08:37;;;;;;;74.83;6.70;;;4.90;99.90;;;;;;5053971;28;20037;-57
2022/11/12 06:11:02;;;;;;;16.70;5.03;;;4.90;99.90;;;;;;5063723;28;20036;-56
2022/11/12 06:13:28;;;;;;;3.53;3.23;;;4.80;99.90;;;;;;5062389;28;20033;-57
2022/11/12 06:15:55;;;;;;;2.70;2.50;;;4.80;99.90;;;;;;5056778;28;20040;-57
2022/11/12 06:18:20;;;;;;;62.60;4.53;;;4.80;99.90;;;;;;5070832;28;20346;-56
2022/11/12 06:21:18;;;;;;;25.25;3.22;;;4.80;99.90;;;;;;5071929;28;20071;-56
2022/11/12 06:23:32;;;;;;;27.65;3.67;;;4.70;99.90;;;;;;5071726;28;20040;-57
2022/11/12 06:25:58;;;;;;;6.93;2.45;;;4.50;99.90;;;;;;5071012;28;20555;-57
2022/11/12 06:28:24;;;;;;;5.00;2.40;;;4.40;99.90;;;;;;5063991;28;20124;-57
2022/11/12 06:30:49;;;;;;;7.77;2.80;;;4.40;99.90;;;;;;5053691;28;20108;-57
2022/11/12 06:33:15;;;;;;;17.27;3.60;;;4.30;99.90;;;;;;5058463;28;20058;-57
2022/11/12 06:35:40;;;;;;;9.50;3.23;;;4.20;99.90;;;;;;5071890;28;20075;-55
2022/11/12 06:38:06;;;;;;;7.17;4.00;;;4.20;99.90;;;;;;5072063;28;20117;-57
2022/11/12 06:40:31;;;;;;;8.37;5.10;;;4.20;99.90;;;;;;5063041;28;20036;-57
2022/11/12 06:42:57;;;;;;;6.07;3.83;;;4.20;99.90;;;;;;5056817;28;20040;-57
2022/11/12 06:45:24;;;;;;;3.35;3.05;;;4.20;99.90;;;;;;5071902;28;20412;-57
2022/11/12 06:47:49;;;;;;;3.60;3.10;;;4.30;99.90;;;;;;5062204;28;20073;-54
2022/11/12 06:50:15;;;;;;;12.50;5.50;;;4.30;99.90;;;;;;5057106;28;20064;-57
2022/11/12 06:52:41;;;;;;;71.82;7.78;;;4.30;99.90;;;;;;5075509;28;20507;-57
2022/11/12 06:55:10;;;;;;;6.43;5.27;;;4.30;99.90;;;;;;5067638;28;20060;-55
2022/11/12 06:57:35;;;;;;;6.22;5.18;;;4.30;99.90;;;;;;5070278;28;20587;-56
2022/11/12 07:00:01;;;;;;;5.60;5.10;;;4.30;99.90;;;;;;5070754;28;20064;-56
2022/11/12 07:02:26;;;;;;;15.13;4.10;;;4.40;99.90;;;;;;5052983;28;20099;-56
2022/11/12 07:04:52;;;;;;;30.53;4.53;;;4.40;99.90;;;;;;5071394;28;20521;-55
2022/11/12 07:07:17;;;;;;;4.87;3.83;;;4.40;99.90;;;;;;5071371;28;20145;-55
2022/11/12 07:09:43;;;;;;;8.17;4.10;;;4.40;99.90;;;;;;5071128;28;20041;-56
2022/11/12 07:12:08;;;;;;;6.03;3.60;;;4.40;99.90;;;;;;5061025;28;20033;-55
2022/11/12 07:14:34;;;;;;;3.63;2.93;;;4.40;99.90;;;;;;5071376;28;20115;-56
2022/11/12 07:16:59;;;;;;;72.50;7.87;;;4.40;99.90;;;;;;5092101;28;20123;-57
2022/11/12 07:19:25;;;;;;;62.77;8.00;;;4.40;99.90;;;;;;5078404;28;20117;-55
2022/11/12 07:21:51;;;;;;;26.00;6.07;;;4.30;99.90;;;;;;5059458;28;20135;-55
2022/11/12 07:24:16;;;;;;;23.27;6.90;;;4.30;99.90;;;;;;5055324;28;20035;-55
2022/11/12 07:26:42;;;;;;;8.90;5.60;;;4.30;99.90;;;;;;5071542;28;20036;-56
2022/11/12 07:29:08;;;;;;;5.27;4.77;;;4.30;99.90;;;;;;5057014;28;20128;-56
2022/11/12 07:31:33;;;;;;;6.37;5.70;;;4.50;99.90;;;;;;5050344;28;20099;-56
2022/11/12 07:33:59;;;;;;;38.17;6.47;;;4.60;99.90;;;;;;5051821;28;20520;-55
2022/11/12 07:36:25;;;;;;;9.00;5.20;;;4.80;99.90;;;;;;5055992;28;20115;-56
2022/11/12 07:38:52;;;;;;;5.10;4.53;;;5.20;99.90;;;;;;5059349;28;20437;-57
2022/11/12 07:41:20;;;;;;;3.78;3.47;;;5.70;99.90;;;;;;5055721;28;20468;-55
2022/11/12 07:43:48;;;;;;;4.80;3.97;;;6.10;99.90;;;;;;5072673;28;20032;-54
2022/11/12 07:46:16;;;;;;;5.30;4.30;;;6.40;99.90;;;;;;5078718;28;20040;-56
2022/11/12 07:48:43;;;;;;;4.78;4.15;;;6.50;99.90;;;;;;5079157;28;20036;-57
2022/11/12 07:51:24;;;;;;;5.97;3.33;;;6.60;99.90;;;;;;5072761;28;20367;-55
2022/11/12 07:53:52;;;;;;;23.95;4.03;;;6.90;99.90;;;;;;5062609;28;20498;-56
2022/11/12 07:56:20;;;;;;;5.43;3.70;;;7.40;99.90;;;;;;5050829;28;20076;-56
2022/11/12 07:58:47;;;;;;;4.60;4.10;;;8.10;99.90;;;;;;5054534;28;20036;-57
2022/11/12 08:01:21;;;;;;;4.72;3.15;;;8.90;99.90;;;;;;5070403;28;20044;-58
2022/11/12 08:03:47;;;;;;;4.00;3.58;;;9.70;99.90;;;;;;5067601;28;20124;-57
2022/11/12 08:06:13;;;;;;;10.60;3.10;;;10.30;99.90;;;;;;5065001;28;20545;-56
2022/11/12 08:08:38;;;;;;;7.90;2.33;;;11.00;99.90;;;;;;5050716;28;20061;-57
2022/11/12 08:11:04;;;;;;;9.97;3.80;;;11.60;99.90;;;;;;5050457;28;20044;-56
2022/11/12 08:13:29;;;;;;;6.20;4.07;;;12.20;99.90;;;;;;5050153;28;20053;-58
2022/11/12 08:15:58;;;;;;;4.65;4.18;;;12.70;99.90;;;;;;5051415;28;20045;-57
2022/11/12 08:18:24;;;;;;;4.55;3.83;;;13.30;99.90;;;;;;5051029;28;20044;-55
2022/11/12 08:20:50;;;;;;;4.40;3.53;;;13.90;99.90;;;;;;5070464;28;20051;-57
2022/11/12 08:23:16;;;;;;;6.25;4.22;;;14.50;99.90;;;;;;5069094;28;20415;-57
2022/11/12 08:25:41;;;;;;;6.28;4.13;;;14.90;99.90;;;;;;5062651;28;20040;-58
2022/11/12 08:28:07;;;;;;;5.40;4.32;;;15.30;99.80;;;;;;5063660;28;20029;-58
2022/11/12 08:30:34;;;;;;;4.57;3.95;;;15.70;99.40;;;;;;5054413;28;20036;-57
2022/11/12 08:33:02;;;;;;;4.78;4.28;;;16.00;97.90;;;;;;5054054;28;20045;-57
2022/11/12 08:35:29;;;;;;;5.75;4.10;;;16.30;97.30;;;;;;5052641;28;20032;-58
2022/11/12 08:37:59;;;;;;;4.18;3.53;;;16.50;95.60;;;;;;5056798;28;20056;-57
2022/11/12 08:40:29;;;;;;;8.25;4.25;;;16.60;95.20;;;;;;5052234;28;20448;-57
2022/11/12 08:43:05;;;;;;;6.00;4.00;;;16.90;95.40;;;;;;5048910;28;20521;-59
2022/11/12 08:45:32;;;;;;;6.53;4.78;;;17.10;93.20;;;;;;5062908;28;20044;-58
2022/11/12 08:48:00;;;;;;;9.15;5.45;;;17.20;94.00;;;;;;5054866;28;20397;-58
2022/11/12 08:50:26;;;;;;;7.00;5.22;;;17.20;93.10;;;;;;5054613;28;20037;-58
2022/11/12 08:52:51;;;;;;;7.15;4.75;;;17.40;92.10;;;;;;5057910;28;20064;-58
2022/11/12 08:55:17;;;;;;;5.57;4.87;;;17.50;92.20;;;;;;5052040;28;20033;-61
2022/11/12 08:57:43;;;;;;;6.43;5.18;;;17.60;91.70;;;;;;5050762;28;20044;-57
2022/11/12 09:00:11;;;;;;;11.07;5.28;;;18.00;90.90;;;;;;5050486;28;20041;-58
2022/11/12 09:02:36;;;;;;;9.93;5.53;;;18.00;89.80;;;;;;5049065;28;20076;-56
2022/11/12 09:05:02;;;;;;;11.50;5.05;;;17.70;88.40;;;;;;5076721;28;20692;-57
2022/11/12 09:07:28;;;;;;;5.93;5.20;;;17.30;88.90;;;;;;5062469;28;20173;-56
2022/11/12 09:09:53;;;;;;;6.72;4.53;;;16.90;89.60;;;;;;5062090;28;20166;-57
2022/11/12 09:12:19;;;;;;;7.65;4.53;;;16.40;90.10;;;;;;5076037;28;20044;-57
2022/11/12 09:14:45;;;;;;;8.57;5.50;;;16.10;90.70;;;;;;5052929;28;20068;-57
2022/11/12 09:17:11;;;;;;;8.25;5.43;;;15.80;91.00;;;;;;5064873;28;20282;-56
2022/11/12 09:19:36;;;;;;;11.05;5.50;;;15.60;91.70;;;;;;5074574;28;20443;-55
2022/11/12 09:22:02;;;;;;;10.20;6.25;;;15.40;91.90;;;;;;5070198;28;20085;-56
2022/11/12 09:24:28;;;;;;;9.52;5.80;;;15.20;92.40;;;;;;5065864;28;20486;-56
2022/11/12 09:26:54;;;;;;;10.83;5.83;;;15.00;92.80;;;;;;5053561;28;20037;-57
2022/11/12 09:29:20;;;;;;;10.48;6.70;;;14.90;93.30;;;;;;5061598;28;20620;-55
2022/11/12 09:31:46;;;;;;;10.98;5.45;;;14.70;93.90;;;;;;5059431;28;20033;-53
2022/11/12 09:34:12;;;;;;;10.57;5.90;;;14.70;94.30;;;;;;5073694;28;20028;-56
2022/11/12 09:36:38;;;;;;;7.93;6.18;;;14.60;94.60;;;;;;5080636;28;20032;-56
2022/11/12 09:39:03;;;;;;;9.15;6.05;;;14.60;94.80;;;;;;5060330;28;20045;-55
2022/11/12 09:41:36;;;;;;;11.38;7.15;;;14.60;95.10;;;;;;5073582;28;20048;-55
2022/11/12 09:44:14;;;;;;;12.15;6.82;;;14.60;95.50;;;;;;5066180;28;20040;-57
2022/11/12 09:47:02;;;;;;;10.23;7.05;;;14.60;95.80;;;;;;5053282;28;20083;-55
2022/11/12 09:49:32;;;;;;;9.90;6.65;;;14.50;96.10;;;;;;5056683;28;20412;-57
2022/11/12 09:52:20;;;;;;;13.48;6.30;;;14.30;96.20;;;;;;5073485;28;20036;-58
2022/11/12 09:54:51;;;;;;;14.27;6.63;;;14.10;96.50;;;;;;5057284;28;20047;-55
2022/11/12 09:57:16;;;;;;;11.30;7.25;;;14.00;97.00;;;;;;5073198;28;20051;-55
2022/11/12 09:59:42;;;;;;;12.10;6.83;;;13.90;97.50;;;;;;5056165;28;20568;-55
2022/11/12 10:02:26;;;;;;;10.85;6.78;;;13.70;98.00;;;;;;5072923;28;20401;-56
2022/11/12 10:05:05;;;;;;;12.77;8.05;;;13.60;98.50;;;;;;5054455;28;20553;-55
2022/11/12 10:07:45;;;;;;;13.98;7.68;;;13.50;99.10;;;;;;5076098;28;20393;-53
2022/11/12 10:10:36;;;;;;;12.55;7.18;;;13.40;99.60;;;;;;5056149;28;20045;-54
2022/11/12 10:13:28;;;;;;;9.57;7.35;;;13.30;99.90;;;;;;5077113;28;20044;-51
2022/11/12 10:19:24;;;;;;;15.75;8.35;;;12.90;99.90;;;;;;5061926;28;20041;-51
2022/11/12 10:22:01;;;;;;;13.40;7.80;;;12.80;99.90;;;;;;5066473;28;20458;-51
2022/11/12 10:24:34;;;;;;;15.55;8.93;;;12.90;99.90;;;;;;5051448;28;20180;-51
2022/11/12 10:27:01;;;;;;;13.40;7.57;;;12.90;99.90;;;;;;5070664;28;20044;-53
2022/11/12 10:29:47;;;;;;;10.60;9.13;;;12.90;99.90;;;;;;5064793;28;20079;-54
2022/11/12 10:32:14;;;;;;;11.57;9.13;;;12.90;99.90;;;;;;5079568;28;20033;-56
2022/11/12 10:34:40;;;;;;;13.20;8.27;;;12.90;99.90;;;;;;5063030;28;20470;-51
2022/11/12 10:37:25;;;;;;;15.57;8.13;;;13.00;99.90;;;;;;5069338;28;20071;-51
2022/11/12 10:39:51;;;;;;;9.35;7.25;;;13.00;99.90;;;;;;5061184;28;20044;-53
2022/11/12 10:42:19;;;;;;;13.85;7.85;;;13.10;99.90;;;;;;5063330;28;20032;-53
2022/11/12 10:44:46;;;;;;;11.70;8.13;;;13.20;99.90;;;;;;5071195;28;20061;-52
2022/11/12 10:47:20;;;;;;;14.27;8.85;;;13.30;99.90;;;;;;5075228;28;20673;-52
2022/11/12 10:50:04;;;;;;;12.77;7.88;;;13.30;99.90;;;;;;5066741;28;20065;-51
2022/11/12 10:52:30;;;;;;;22.77;7.53;;;13.40;99.90;;;;;;5073707;28;20090;-54
2022/11/12 10:55:15;;;;;;;11.35;8.30;;;13.50;99.90;;;;;;5056594;28;20028;-55
2022/11/12 10:57:41;;;;;;;9.00;7.50;;;13.60;99.90;;;;;;5078075;28;20029;-54
2022/11/12 11:00:11;;;;;;;12.93;8.97;;;13.60;99.90;;;;;;5060582;28;20044;-55
2022/11/12 11:02:37;;;;;;;11.55;8.25;;;13.60;99.90;;;;;;5067838;28;20127;-51
2022/11/12 11:05:24;;;;;;;12.65;8.90;;;13.60;99.90;;;;;;5062234;28;20125;-55
2022/11/12 11:07:50;;;;;;;9.63;8.68;;;13.60;99.90;;;;;;5062926;28;20094;-54
2022/11/12 11:10:26;;;;;;;14.30;9.45;;;13.70;99.90;;;;;;5051481;28;20049;-53
2022/11/12 11:13:08;;;;;;;13.10;8.52;;;13.70;99.90;;;;;;5058035;28;20055;-53
2022/11/12 11:15:34;;;;;;;14.18;8.23;;;13.70;99.90;;;;;;5058519;28;20045;-56
2022/11/12 11:18:00;;;;;;;9.05;7.85;;;13.70;99.90;;;;;;5069673;28;20111;-56
2022/11/12 11:20:42;;;;;;;13.27;8.10;;;13.80;99.90;;;;;;5075393;28;20119;-53
2022/11/12 11:23:21;;;;;;;14.18;8.98;;;13.70;99.90;;;;;;5074760;28;20052;-55
2022/11/12 11:25:50;;;;;;;12.32;8.65;;;13.60;99.90;;;;;;5090286;28;20039;-54
2022/11/12 11:28:32;;;;;;;10.93;7.13;;;13.70;99.90;;;;;;5090039;28;20048;-54
2022/11/12 11:31:47;;;;;;;13.00;9.07;;;13.80;99.90;;;;;;5071165;28;20108;-56
2022/11/12 11:34:43;;;;;;;11.68;8.65;;;13.80;99.90;;;;;;5061896;28;20045;-53
2022/11/12 11:37:26;;;;;;;15.18;9.02;;;13.80;99.90;;;;;;5071037;28;20037;-53
2022/11/12 11:40:10;;;;;;;10.75;8.63;;;13.90;99.90;;;;;;5070655;28;20055;-55
2022/11/12 11:43:05;;;;;;;18.42;8.20;;;14.10;99.90;;;;;;5071104;28;20040;-55
2022/11/12 11:45:48;;;;;;;15.70;9.00;;;14.20;99.90;;;;;;5071008;28;20233;-53
2022/11/12 11:48:35;;;;;;;14.90;7.82;;;14.40;99.90;;;;;;5070383;28;20423;-55
2022/11/12 11:51:22;;;;;;;12.55;7.28;;;14.60;99.90;;;;;;5068471;28;20122;-55
2022/11/12 11:53:47;;;;;;;;;;;14.80;99.90;;;;;;5062753;28;20045;-56
2022/11/12 11:56:27;;;;;;;10.70;8.07;;;14.80;99.90;;;;;;5050797;28;19924;-55
2022/11/12 11:59:30;;;;;;;11.73;7.90;;;14.90;99.90;;;;;;5052195;28;20441;-55
2022/11/12 12:02:22;;;;;;;11.40;7.97;;;15.10;99.90;;;;;;5052225;28;20043;-54
2022/11/12 12:04:59;;;;;;;8.05;6.63;;;15.40;99.90;;;;;;5049831;28;20151;-54
2022/11/12 12:08:01;;;;;;;11.00;6.78;;;15.60;99.90;;;;;;5062421;28;20123;-55
2022/11/12 12:10:36;;;;;;;11.10;7.13;;;15.70;99.90;;;;;;5070558;28;20043;-55
2022/11/12 12:13:28;;;;;;;12.13;7.15;;;15.80;99.90;;;;;;5066587;28;20045;-56
2022/11/12 12:16:20;;;;;;;11.00;6.88;;;16.00;99.90;;;;;;5068240;28;20497;-55
2022/11/12 12:18:54;;;;;;;8.60;6.13;;;16.10;99.40;;;;;;5069933;28;20044;-55
2022/11/12 12:21:22;;;;;;;9.00;6.30;;;16.30;99.20;;;;;;5068652;28;20109;-55
2022/11/12 12:23:55;;;;;;;6.82;5.47;;;16.50;99.20;;;;;;5065336;28;20052;-55
2022/11/12 12:26:34;;;;;;;12.40;5.68;;;16.60;99.10;;;;;;5069141;28;20032;-54
2022/11/12 12:29:21;;;;;;;75.97;10.85;;;16.70;98.40;;;;;;5060231;28;20043;-53
2022/11/12 12:31:59;;;;;;;23.38;7.15;;;16.70;98.00;;;;;;5066747;28;20409;-54
2022/11/12 12:34:35;;;;;;;15.63;7.00;;;16.70;97.90;;;;;;5065340;28;20090;-55
2022/11/12 12:37:09;;;;;;;14.77;6.75;;;16.90;97.90;;;;;;5069040;28;20032;-56
2022/11/12 12:40:10;;;;;;;15.60;7.20;;;17.00;97.90;;;;;;5069329;28;20456;-56
2022/11/12 12:42:59;;;;;;;23.48;7.05;;;17.20;97.70;;;;;;5015919;28;20127;-54
2022/11/12 12:45:41;;;;;;;8.98;6.47;;;17.30;97.20;;;;;;5049908;28;20052;-56
2022/11/12 12:48:20;;;;;;;10.60;6.82;;;17.50;97.40;;;;;;5049435;28;20116;-55
2022/11/12 12:50:47;;;;;;;7.35;6.18;;;17.70;97.20;;;;;;5049350;28;20041;-55
2022/11/12 12:53:24;;;;;;;8.50;6.68;;;17.80;96.60;;;;;;5048611;28;20524;-56
2022/11/12 12:55:54;;;;;;;10.23;6.95;;;17.80;95.80;;;;;;5049105;28;20270;-55
2022/11/12 12:58:45;;;;;;;10.25;6.38;;;17.90;95.90;;;;;;5049675;28;20037;-56
2022/11/12 13:01:20;;;;;;;7.07;5.63;;;18.20;95.60;;;;;;5063939;28;20071;-56
2022/11/12 13:03:49;;;;;;;14.70;6.55;;;18.50;95.50;;;;;;5049864;28;20044;-56
2022/11/12 13:06:20;;;;;;;12.45;5.93;;;18.80;95.30;;;;;;5066896;28;20047;-54
2022/11/12 13:08:58;;;;;;;7.95;5.85;;;19.00;94.40;;;;;;5064750;28;20111;-56
2022/11/12 13:14:37;;;;;;;8.65;5.95;;;19.20;93.50;;;;;;5060572;28;20045;-56
2022/11/12 13:17:07;;;;;;;13.00;7.35;;;19.20;93.40;;;;;;5056355;28;20426;-54
2022/11/12 13:19:42;;;;;;;7.53;6.32;;;19.20;93.70;;;;;;5065329;28;20036;-55
2022/11/12 13:22:17;;;;;;;12.52;6.57;;;19.10;93.30;;;;;;5069346;28;20040;-55
2022/11/12 13:25:04;;;;;;;7.45;6.63;;;19.00;93.00;;;;;;5055460;28;20037;-56
2022/11/12 13:27:39;;;;;;;;;;;18.90;93.30;;;;;;5053371;28;20044;-54
2022/11/12 13:30:13;;;;;;;9.70;6.20;;;18.80;93.10;;;;;;5072933;28;19934;-54